sensor_id;sensor_type;location;lat;lon;timestamp;pressure;altitude;pressure_sealevel;temperature;humidity
61618;BME280;47518;51.776;9.370;2023-03-01T00:01:42;101725.41;;;-1.97;76.52
61618;BME280;47518;51.776;9.370;2023-03-01T00:04:08;101720.50;;;-2.06;76.18
61618;BME280;47518;51.776;9.370;2023-03-01T00:06:36;101724.88;;;-2.27;76.18
61618;BME280;47518;51.776;9.370;2023-03-01T00:09:03;101717.63;;;-2.23;76.45
61618;BME280;47518;51.776;9.370;2023-03-01T00:11:31;101722.78;;;-2.19;76.58
61618;BME280;47518;51.776;9.370;2023-03-01T00:13:59;101721.72;;;-2.15;76.89
61618;BME280;47518;51.776;9.370;2023-03-01T00:16:33;101710.06;;;-2.12;76.44
61618;BME280;47518;51.776;9.370;2023-03-01T00:19:05;101715.00;;;-2.25;76.79
61618;BME280;47518;51.776;9.370;2023-03-01T00:21:32;101723.19;;;-2.29;76.45
61618;BME280;47518;51.776;9.370;2023-03-01T00:24:00;101720.69;;;-2.34;76.42
61618;BME280;47518;51.776;9.370;2023-03-01T00:26:27;101729.69;;;-2.37;76.28
61618;BME280;47518;51.776;9.370;2023-03-01T00:28:53;101720.50;;;-2.51;77.43
61618;BME280;47518;51.776;9.370;2023-03-01T00:31:29;101717.28;;;-2.38;77.12
61618;BME280;47518;51.776;9.370;2023-03-01T00:33:57;101712.84;;;-2.37;77.46
61618;BME280;47518;51.776;9.370;2023-03-01T00:36:29;101715.78;;;-2.45;76.60
61618;BME280;47518;51.776;9.370;2023-03-01T00:38:55;101719.50;;;-2.49;76.20
61618;BME280;47518;51.776;9.370;2023-03-01T00:41:22;101710.47;;;-2.68;77.46
61618;BME280;47518;51.776;9.370;2023-03-01T00:43:49;101708.94;;;-2.74;76.96
61618;BME280;47518;51.776;9.370;2023-03-01T00:46:19;101709.00;;;-2.75;77.20
61618;BME280;47518;51.776;9.370;2023-03-01T00:48:45;101714.47;;;-2.80;77.71
61618;BME280;47518;51.776;9.370;2023-03-01T00:51:21;101707.81;;;-2.91;78.39
61618;BME280;47518;51.776;9.370;2023-03-01T00:53:50;101704.34;;;-2.94;79.15
61618;BME280;47518;51.776;9.370;2023-03-01T00:56:16;101717.97;;;-2.78;79.25
61618;BME280;47518;51.776;9.370;2023-03-01T00:58:42;101698.09;;;-2.69;78.19
61618;BME280;47518;51.776;9.370;2023-03-01T01:01:14;101717.13;;;-2.56;78.18
61618;BME280;47518;51.776;9.370;2023-03-01T01:03:48;101719.63;;;-2.52;77.61
61618;BME280;47518;51.776;9.370;2023-03-01T01:09:22;101724.72;;;-2.69;78.55
61618;BME280;47518;51.776;9.370;2023-03-01T01:11:51;101711.94;;;-2.83;77.60
61618;BME280;47518;51.776;9.370;2023-03-01T01:14:17;101717.59;;;-2.92;78.94
61618;BME280;47518;51.776;9.370;2023-03-01T01:16:56;101715.16;;;-2.98;79.39
61618;BME280;47518;51.776;9.370;2023-03-01T01:19:22;101702.53;;;-3.16;78.79
61618;BME280;47518;51.776;9.370;2023-03-01T01:21:48;101693.00;;;-3.22;79.34
61618;BME280;47518;51.776;9.370;2023-03-01T01:24:14;101694.34;;;-3.10;79.44
61618;BME280;47518;51.776;9.370;2023-03-01T01:26:44;101687.09;;;-3.07;79.26
61618;BME280;47518;51.776;9.370;2023-03-01T01:29:12;101693.63;;;-2.92;79.65
61618;BME280;47518;51.776;9.370;2023-03-01T01:31:41;101698.44;;;-2.78;78.08
61618;BME280;47518;51.776;9.370;2023-03-01T01:34:12;101685.72;;;-2.94;78.62
61618;BME280;47518;51.776;9.370;2023-03-01T01:37:10;101693.56;;;-2.67;77.43
61618;BME280;47518;51.776;9.370;2023-03-01T01:39:38;101688.03;;;-2.84;78.06
61618;BME280;47518;51.776;9.370;2023-03-01T01:42:04;101675.72;;;-2.87;77.20
61618;BME280;47518;51.776;9.370;2023-03-01T01:44:30;101677.66;;;-2.92;77.43
61618;BME280;47518;51.776;9.370;2023-03-01T01:47:06;101680.97;;;-2.85;77.63
61618;BME280;47518;51.776;9.370;2023-03-01T01:49:41;101671.66;;;-2.97;78.65
61618;BME280;47518;51.776;9.370;2023-03-01T01:52:16;101680.47;;;-2.95;78.06
61618;BME280;47518;51.776;9.370;2023-03-01T01:54:50;101674.78;;;-2.86;77.84
61618;BME280;47518;51.776;9.370;2023-03-01T01:57:22;101683.06;;;-2.94;79.33
61618;BME280;47518;51.776;9.370;2023-03-01T01:59:52;101681.13;;;-3.13;78.95
61618;BME280;47518;51.776;9.370;2023-03-01T02:02:20;101673.66;;;-3.27;79.08
61618;BME280;47518;51.776;9.370;2023-03-01T02:04:47;101662.38;;;-3.34;78.66
61618;BME280;47518;51.776;9.370;2023-03-01T02:07:20;101666.13;;;-3.39;79.67
61618;BME280;47518;51.776;9.370;2023-03-01T02:09:48;101665.47;;;-3.46;80.67
61618;BME280;47518;51.776;9.370;2023-03-01T02:12:17;101658.56;;;-3.27;79.47
61618;BME280;47518;51.776;9.370;2023-03-01T02:14:43;101667.50;;;-3.04;79.70
61618;BME280;47518;51.776;9.370;2023-03-01T02:17:15;101667.13;;;-3.18;79.63
61618;BME280;47518;51.776;9.370;2023-03-01T02:20:08;101659.84;;;-3.13;78.72
61618;BME280;47518;51.776;9.370;2023-03-01T02:22:38;101649.44;;;-3.19;79.28
61618;BME280;47518;51.776;9.370;2023-03-01T02:49:29;101639.00;;;-3.26;78.83
61618;BME280;47518;51.776;9.370;2023-03-01T03:07:40;101608.75;;;-3.21;79.29
61618;BME280;47518;51.776;9.370;2023-03-01T03:13:12;101607.47;;;-3.35;80.14
61618;BME280;47518;51.776;9.370;2023-03-01T03:15:38;101595.06;;;-3.36;81.21
61618;BME280;47518;51.776;9.370;2023-03-01T03:18:07;101599.31;;;-3.30;79.44
61618;BME280;47518;51.776;9.370;2023-03-01T03:20:33;101599.63;;;-3.39;79.71
61618;BME280;47518;51.776;9.370;2023-03-01T03:23:00;101605.03;;;-3.41;79.07
61618;BME280;47518;51.776;9.370;2023-03-01T03:25:27;101619.78;;;-3.32;78.20
61618;BME280;47518;51.776;9.370;2023-03-01T03:27:57;101613.44;;;-3.53;78.82
61618;BME280;47518;51.776;9.370;2023-03-01T03:30:26;101615.69;;;-3.66;79.85
61618;BME280;47518;51.776;9.370;2023-03-01T03:32:55;101606.09;;;-3.70;79.61
61618;BME280;47518;51.776;9.370;2023-03-01T03:35:27;101617.41;;;-3.65;80.27
61618;BME280;47518;51.776;9.370;2023-03-01T03:37:55;101618.06;;;-3.58;80.57
61618;BME280;47518;51.776;9.370;2023-03-01T03:40:38;101602.38;;;-3.91;79.78
61618;BME280;47518;51.776;9.370;2023-03-01T03:43:05;101617.97;;;-3.80;79.68
61618;BME280;47518;51.776;9.370;2023-03-01T03:45:31;101619.19;;;-3.90;79.23
61618;BME280;47518;51.776;9.370;2023-03-01T03:47:59;101606.22;;;-3.99;80.06
61618;BME280;47518;51.776;9.370;2023-03-01T03:50:25;101600.03;;;-4.00;79.06
61618;BME280;47518;51.776;9.370;2023-03-01T03:52:51;101601.66;;;-3.96;78.86
61618;BME280;47518;51.776;9.370;2023-03-01T03:55:16;101596.38;;;-4.22;80.65
61618;BME280;47518;51.776;9.370;2023-03-01T03:57:45;101599.94;;;-4.23;80.11
61618;BME280;47518;51.776;9.370;2023-03-01T04:00:17;101598.00;;;-4.18;80.15
61618;BME280;47518;51.776;9.370;2023-03-01T04:02:45;101592.97;;;-4.26;80.22
61618;BME280;47518;51.776;9.370;2023-03-01T04:05:12;101582.34;;;-4.26;80.36
61618;BME280;47518;51.776;9.370;2023-03-01T04:07:38;101593.69;;;-3.96;80.55
61618;BME280;47518;51.776;9.370;2023-03-01T04:10:06;101586.53;;;-3.94;79.46
61618;BME280;47518;51.776;9.370;2023-03-01T04:12:34;101603.50;;;-3.98;80.67
61618;BME280;47518;51.776;9.370;2023-03-01T04:15:01;101599.34;;;-3.80;79.97
61618;BME280;47518;51.776;9.370;2023-03-01T04:17:39;101606.34;;;-3.77;81.05
61618;BME280;47518;51.776;9.370;2023-03-01T04:20:05;101605.09;;;-3.67;79.46
61618;BME280;47518;51.776;9.370;2023-03-01T04:22:32;101593.53;;;-3.66;80.56
61618;BME280;47518;51.776;9.370;2023-03-01T04:25:01;101594.91;;;-3.79;80.27
61618;BME280;47518;51.776;9.370;2023-03-01T04:27:27;101593.81;;;-3.99;79.66
61618;BME280;47518;51.776;9.370;2023-03-01T04:29:52;101593.97;;;-4.03;81.07
61618;BME280;47518;51.776;9.370;2023-03-01T04:32:18;101600.41;;;-3.86;79.35
61618;BME280;47518;51.776;9.370;2023-03-01T04:34:43;101607.16;;;-4.00;78.92
61618;BME280;47518;51.776;9.370;2023-03-01T04:37:09;101606.88;;;-3.93;78.85
61618;BME280;47518;51.776;9.370;2023-03-01T04:39:35;101609.19;;;-4.08;79.09
61618;BME280;47518;51.776;9.370;2023-03-01T04:42:14;101591.19;;;-4.25;80.44
61618;BME280;47518;51.776;9.370;2023-03-01T04:44:40;101592.97;;;-4.26;80.54
61618;BME280;47518;51.776;9.370;2023-03-01T04:47:09;101597.81;;;-4.12;80.33
61618;BME280;47518;51.776;9.370;2023-03-01T04:49:34;101594.69;;;-4.25;80.23
61618;BME280;47518;51.776;9.370;2023-03-01T04:52:00;101591.41;;;-4.06;79.85
61618;BME280;47518;51.776;9.370;2023-03-01T04:54:31;101592.75;;;-4.20;81.46
61618;BME280;47518;51.776;9.370;2023-03-01T04:56:57;101593.06;;;-4.02;80.34
61618;BME280;47518;51.776;9.370;2023-03-01T04:59:26;101605.28;;;-3.98;79.84
61618;BME280;47518;51.776;9.370;2023-03-01T05:01:53;101600.72;;;-3.95;79.51
61618;BME280;47518;51.776;9.370;2023-03-01T05:04:22;101605.28;;;-3.98;79.81
61618;BME280;47518;51.776;9.370;2023-03-01T05:06:51;101611.22;;;-3.90;80.26
61618;BME280;47518;51.776;9.370;2023-03-01T05:09:20;101602.16;;;-3.85;79.53
61618;BME280;47518;51.776;9.370;2023-03-01T05:11:48;101607.53;;;-3.86;79.64
61618;BME280;47518;51.776;9.370;2023-03-01T05:14:17;101610.66;;;-4.00;80.71
61618;BME280;47518;51.776;9.370;2023-03-01T05:16:49;101611.97;;;-3.87;80.96
61618;BME280;47518;51.776;9.370;2023-03-01T05:19:14;101593.50;;;-3.90;79.42
61618;BME280;47518;51.776;9.370;2023-03-01T05:21:42;101592.09;;;-4.26;80.10
61618;BME280;47518;51.776;9.370;2023-03-01T05:24:28;101595.06;;;-4.35;79.76
61618;BME280;47518;51.776;9.370;2023-03-01T05:27:04;101602.09;;;-4.08;79.91
61618;BME280;47518;51.776;9.370;2023-03-01T05:29:31;101591.13;;;-4.24;79.03
61618;BME280;47518;51.776;9.370;2023-03-01T05:32:01;101600.97;;;-4.27;79.40
61618;BME280;47518;51.776;9.370;2023-03-01T05:34:30;101596.53;;;-4.27;79.76
61618;BME280;47518;51.776;9.370;2023-03-01T05:37:09;101596.31;;;-4.47;81.04
61618;BME280;47518;51.776;9.370;2023-03-01T05:39:34;101602.66;;;-4.51;81.50
61618;BME280;47518;51.776;9.370;2023-03-01T05:42:01;101596.09;;;-4.41;81.03
61618;BME280;47518;51.776;9.370;2023-03-01T05:44:28;101584.06;;;-4.51;80.40
61618;BME280;47518;51.776;9.370;2023-03-01T05:47:00;101585.69;;;-4.47;80.67
61618;BME280;47518;51.776;9.370;2023-03-01T05:49:26;101591.81;;;-4.19;79.21
61618;BME280;47518;51.776;9.370;2023-03-01T05:51:52;101595.19;;;-4.40;80.11
61618;BME280;47518;51.776;9.370;2023-03-01T05:54:20;101590.59;;;-4.35;79.59
61618;BME280;47518;51.776;9.370;2023-03-01T05:56:51;101590.31;;;-4.26;80.29
61618;BME280;47518;51.776;9.370;2023-03-01T05:59:19;101590.13;;;-4.21;80.13
61618;BME280;47518;51.776;9.370;2023-03-01T06:01:44;101576.91;;;-4.23;80.33
61618;BME280;47518;51.776;9.370;2023-03-01T06:04:10;101585.59;;;-4.18;80.15
61618;BME280;47518;51.776;9.370;2023-03-01T06:06:51;101577.72;;;-4.21;80.45
61618;BME280;47518;51.776;9.370;2023-03-01T06:09:17;101576.06;;;-4.23;80.59
61618;BME280;47518;51.776;9.370;2023-03-01T06:51:07;101589.66;;;-4.07;79.79
61618;BME280;47518;51.776;9.370;2023-03-01T06:53:36;101595.84;;;-4.07;80.16
61618;BME280;47518;51.776;9.370;2023-03-01T06:56:01;101575.38;;;-3.78;79.91
61618;BME280;47518;51.776;9.370;2023-03-01T06:58:36;101580.53;;;-3.74;79.15
61618;BME280;47518;51.776;9.370;2023-03-01T07:01:06;101565.06;;;-3.63;79.69
61618;BME280;47518;51.776;9.370;2023-03-01T07:03:32;101571.19;;;-3.61;78.90
61618;BME280;47518;51.776;9.370;2023-03-01T07:06:12;101579.94;;;-3.57;79.46
61618;BME280;47518;51.776;9.370;2023-03-01T07:09:02;101571.19;;;-3.61;79.35
61618;BME280;47518;51.776;9.370;2023-03-01T07:11:28;101572.38;;;-3.21;77.62
61618;BME280;47518;51.776;9.370;2023-03-01T07:13:59;101580.94;;;-2.91;76.57
61618;BME280;47518;51.776;9.370;2023-03-01T07:16:40;101568.78;;;-2.75;77.10
61618;BME280;47518;51.776;9.370;2023-03-01T07:19:09;101563.25;;;-2.70;76.45
61618;BME280;47518;51.776;9.370;2023-03-01T07:22:10;101574.47;;;-2.62;76.14
61618;BME280;47518;51.776;9.370;2023-03-01T07:25:03;101555.72;;;-2.81;77.55
61618;BME280;47518;51.776;9.370;2023-03-01T07:28:27;101564.41;;;-2.33;76.36
61618;BME280;47518;51.776;9.370;2023-03-01T07:31:23;101561.81;;;-2.35;75.89
61618;BME280;47518;51.776;9.370;2023-03-01T07:33:54;101562.59;;;-2.11;74.68
61618;BME280;47518;51.776;9.370;2023-03-01T07:39:23;101550.94;;;-1.88;74.58
61618;BME280;47518;51.776;9.370;2023-03-01T07:41:52;101555.31;;;-1.87;74.55
61618;BME280;47518;51.776;9.370;2023-03-01T07:44:24;101553.25;;;-2.01;75.12
61618;BME280;47518;51.776;9.370;2023-03-01T07:47:02;101557.19;;;-1.49;74.69
61618;BME280;47518;51.776;9.370;2023-03-01T07:49:31;101549.03;;;-1.45;73.60
61618;BME280;47518;51.776;9.370;2023-03-01T07:51:57;101549.28;;;-1.70;73.21
61618;BME280;47518;51.776;9.370;2023-03-01T07:57:16;101548.69;;;-1.38;72.57
61618;BME280;47518;51.776;9.370;2023-03-01T07:59:42;101546.34;;;-1.45;73.54
61618;BME280;47518;51.776;9.370;2023-03-01T08:02:15;101546.81;;;-0.98;71.55
61618;BME280;47518;51.776;9.370;2023-03-01T08:04:44;101540.38;;;-0.94;70.58
61618;BME280;47518;51.776;9.370;2023-03-01T08:07:29;101547.16;;;-1.06;72.94
61618;BME280;47518;51.776;9.370;2023-03-01T08:14:12;101542.34;;;-0.79;71.36
61618;BME280;47518;51.776;9.370;2023-03-01T08:16:52;101520.47;;;-0.51;71.21
61618;BME280;47518;51.776;9.370;2023-03-01T08:19:23;101522.03;;;-0.47;71.53
61618;BME280;47518;51.776;9.370;2023-03-01T08:21:58;101536.28;;;-0.12;69.33
61618;BME280;47518;51.776;9.370;2023-03-01T08:24:34;101530.16;;;0.04;69.10
61618;BME280;47518;51.776;9.370;2023-03-01T08:29:59;101520.47;;;0.18;68.47
61618;BME280;47518;51.776;9.370;2023-03-01T08:35:43;101528.34;;;0.54;68.10
61618;BME280;47518;51.776;9.370;2023-03-01T08:41:23;101527.53;;;0.70;65.95
61618;BME280;47518;51.776;9.370;2023-03-01T08:46:40;101527.16;;;0.27;67.80
61618;BME280;47518;51.776;9.370;2023-03-01T08:49:34;101518.38;;;0.41;68.47
61618;BME280;47518;51.776;9.370;2023-03-01T08:52:26;101515.97;;;0.85;66.44
61618;BME280;47518;51.776;9.370;2023-03-01T08:55:19;101514.13;;;1.33;64.44
61618;BME280;47518;51.776;9.370;2023-03-01T08:57:48;101514.91;;;1.35;63.56
61618;BME280;47518;51.776;9.370;2023-03-01T09:00:15;101505.56;;;1.42;62.87
61618;BME280;47518;51.776;9.370;2023-03-01T09:02:40;101500.31;;;1.70;63.14
61618;BME280;47518;51.776;9.370;2023-03-01T09:05:17;101500.44;;;1.83;62.31
61618;BME280;47518;51.776;9.370;2023-03-01T09:10:18;101494.50;;;2.37;61.22
61618;BME280;47518;51.776;9.370;2023-03-01T09:12:54;101499.78;;;2.38;61.54
61618;BME280;47518;51.776;9.370;2023-03-01T09:15:20;101496.88;;;2.27;61.07
61618;BME280;47518;51.776;9.370;2023-03-01T09:21:02;101503.13;;;2.42;60.61
61618;BME280;47518;51.776;9.370;2023-03-01T09:30:51;101491.88;;;2.92;58.04
61618;BME280;47518;51.776;9.370;2023-03-01T09:39:40;101487.16;;;3.37;56.93
61618;BME280;47518;51.776;9.370;2023-03-01T09:42:10;101474.88;;;3.60;56.49
61618;BME280;47518;51.776;9.370;2023-03-01T09:44:54;101475.94;;;3.70;54.90
61618;BME280;47518;51.776;9.370;2023-03-01T09:47:28;101474.56;;;3.77;55.22
61618;BME280;47518;51.776;9.370;2023-03-01T09:50:18;101477.19;;;4.04;55.80
61618;BME280;47518;51.776;9.370;2023-03-01T09:53:00;101471.38;;;4.23;52.18
61618;BME280;47518;51.776;9.370;2023-03-01T09:55:39;101467.47;;;4.39;50.74
61618;BME280;47518;51.776;9.370;2023-03-01T10:19:17;101442.75;;;6.37;44.70
61618;BME280;47518;51.776;9.370;2023-03-01T10:22:17;101443.34;;;6.63;44.24
61618;BME280;47518;51.776;9.370;2023-03-01T10:25:55;101440.78;;;6.72;43.03
61618;BME280;47518;51.776;9.370;2023-03-01T10:29:01;101439.72;;;7.39;41.74
61618;BME280;47518;51.776;9.370;2023-03-01T10:55:35;101401.78;;;13.77;26.46
61618;BME280;47518;51.776;9.370;2023-03-01T10:58:26;101396.63;;;14.07;25.79
61618;BME280;47518;51.776;9.370;2023-03-01T11:01:46;101388.38;;;14.47;25.40
61618;BME280;47518;51.776;9.370;2023-03-01T12:05:41;101357.78;;;10.52;33.03
61618;BME280;47518;51.776;9.370;2023-03-01T12:08:28;101360.53;;;11.16;32.30
61618;BME280;47518;51.776;9.370;2023-03-01T12:11:22;101359.16;;;11.12;30.73
61618;BME280;47518;51.776;9.370;2023-03-01T12:43:37;101332.69;;;12.94;27.26
61618;BME280;47518;51.776;9.370;2023-03-01T12:49:23;101319.88;;;12.02;29.38
61618;BME280;47518;51.776;9.370;2023-03-01T12:52:10;101318.91;;;12.45;29.12
61618;BME280;47518;51.776;9.370;2023-03-01T12:54:42;101319.19;;;12.00;28.66
61618;BME280;47518;51.776;9.370;2023-03-01T12:57:29;101318.28;;;11.47;30.19
61618;BME280;47518;51.776;9.370;2023-03-01T13:13:33;101286.59;;;11.90;29.00
61618;BME280;47518;51.776;9.370;2023-03-01T13:29:55;101260.88;;;12.26;29.36
61618;BME280;47518;51.776;9.370;2023-03-01T13:32:30;101267.25;;;11.75;30.58
61618;BME280;47518;51.776;9.370;2023-03-01T13:53:29;101232.03;;;11.30;32.16
61618;BME280;47518;51.776;9.370;2023-03-01T13:56:02;101238.88;;;10.90;31.99
61618;BME280;47518;51.776;9.370;2023-03-01T13:58:31;101223.94;;;10.76;32.41
61618;BME280;47518;51.776;9.370;2023-03-01T14:01:04;101235.56;;;10.33;32.77
61618;BME280;47518;51.776;9.370;2023-03-01T14:03:32;101240.75;;;10.27;33.99
61618;BME280;47518;51.776;9.370;2023-03-01T14:19:17;101220.31;;;8.82;36.47
61618;BME280;47518;51.776;9.370;2023-03-01T14:21:47;101223.72;;;8.55;37.20
61618;BME280;47518;51.776;9.370;2023-03-01T14:24:17;101222.88;;;8.05;38.67
61618;BME280;47518;51.776;9.370;2023-03-01T14:26:47;101218.44;;;7.94;39.28
61618;BME280;47518;51.776;9.370;2023-03-01T14:29:40;101226.25;;;7.87;39.00
61618;BME280;47518;51.776;9.370;2023-03-01T14:32:17;101221.91;;;7.66;40.35
61618;BME280;47518;51.776;9.370;2023-03-01T14:34:46;101223.91;;;7.73;39.19
61618;BME280;47518;51.776;9.370;2023-03-01T14:37:33;101228.97;;;7.97;39.35
61618;BME280;47518;51.776;9.370;2023-03-01T14:40:01;101221.88;;;8.46;38.48
61618;BME280;47518;51.776;9.370;2023-03-01T14:42:35;101217.41;;;8.45;38.37
61618;BME280;47518;51.776;9.370;2023-03-01T14:45:01;101213.47;;;8.68;37.78
61618;BME280;47518;51.776;9.370;2023-03-01T14:50:28;101222.03;;;8.83;36.72
61618;BME280;47518;51.776;9.370;2023-03-01T14:52:57;101218.00;;;8.39;39.23
61618;BME280;47518;51.776;9.370;2023-03-01T14:55:35;101209.69;;;8.31;37.76
61618;BME280;47518;51.776;9.370;2023-03-01T14:58:04;101222.75;;;8.06;38.25
61618;BME280;47518;51.776;9.370;2023-03-01T15:00:32;101219.09;;;7.86;39.40
61618;BME280;47518;51.776;9.370;2023-03-01T15:03:08;101210.66;;;7.70;40.52
61618;BME280;47518;51.776;9.370;2023-03-01T15:05:39;101215.50;;;7.67;39.99
61618;BME280;47518;51.776;9.370;2023-03-01T15:08:17;101215.16;;;7.60;39.71
61618;BME280;47518;51.776;9.370;2023-03-01T15:13:54;101204.16;;;7.52;40.66
61618;BME280;47518;51.776;9.370;2023-03-01T15:16:27;101198.44;;;7.45;39.93
61618;BME280;47518;51.776;9.370;2023-03-01T15:18:57;101194.69;;;7.37;40.76
61618;BME280;47518;51.776;9.370;2023-03-01T15:21:26;101192.53;;;7.30;40.77
61618;BME280;47518;51.776;9.370;2023-03-01T15:23:58;101176.91;;;7.13;40.40
61618;BME280;47518;51.776;9.370;2023-03-01T15:26:33;101180.66;;;7.01;40.66
61618;BME280;47518;51.776;9.370;2023-03-01T15:29:01;101180.31;;;6.94;41.81
61618;BME280;47518;51.776;9.370;2023-03-01T15:31:31;101183.09;;;7.04;41.98
61618;BME280;47518;51.776;9.370;2023-03-01T15:34:22;101179.88;;;6.89;41.78
61618;BME280;47518;51.776;9.370;2023-03-01T15:36:49;101183.91;;;6.95;42.18
61618;BME280;47518;51.776;9.370;2023-03-01T15:56:04;101169.69;;;6.72;42.45
61618;BME280;47518;51.776;9.370;2023-03-01T15:58:32;101168.88;;;6.60;42.43
61618;BME280;47518;51.776;9.370;2023-03-01T16:00:58;101170.03;;;6.67;42.49
61618;BME280;47518;51.776;9.370;2023-03-01T16:03:24;101164.56;;;6.58;42.71
61618;BME280;47518;51.776;9.370;2023-03-01T16:05:50;101163.84;;;6.56;42.82
61618;BME280;47518;51.776;9.370;2023-03-01T16:08:17;101166.94;;;6.51;43.24
61618;BME280;47518;51.776;9.370;2023-03-01T16:10:43;101153.34;;;6.41;43.05
61618;BME280;47518;51.776;9.370;2023-03-01T16:13:11;101161.13;;;6.24;42.99
61618;BME280;47518;51.776;9.370;2023-03-01T16:15:37;101153.69;;;6.16;43.27
61618;BME280;47518;51.776;9.370;2023-03-01T16:18:04;101151.59;;;6.20;43.63
61618;BME280;47518;51.776;9.370;2023-03-01T16:20:32;101159.19;;;6.26;43.27
61618;BME280;47518;51.776;9.370;2023-03-01T16:22:59;101155.53;;;6.16;43.55
61618;BME280;47518;51.776;9.370;2023-03-01T16:25:26;101158.13;;;6.17;44.15
61618;BME280;47518;51.776;9.370;2023-03-01T16:27:52;101162.94;;;6.02;44.49
61618;BME280;47518;51.776;9.370;2023-03-01T16:30:22;101172.78;;;5.92;44.11
61618;BME280;47518;51.776;9.370;2023-03-01T16:32:49;101180.38;;;5.76;43.53
61618;BME280;47518;51.776;9.370;2023-03-01T16:35:17;101185.91;;;5.63;44.31
61618;BME280;47518;51.776;9.370;2023-03-01T16:37:43;101177.56;;;5.55;44.85
61618;BME280;47518;51.776;9.370;2023-03-01T16:40:17;101174.97;;;5.31;44.86
61618;BME280;47518;51.776;9.370;2023-03-01T16:42:43;101184.44;;;5.37;44.56
61618;BME280;47518;51.776;9.370;2023-03-01T16:45:09;101180.63;;;5.28;44.63
61618;BME280;47518;51.776;9.370;2023-03-01T16:47:35;101181.19;;;5.09;44.72
61618;BME280;47518;51.776;9.370;2023-03-01T16:50:04;101186.38;;;5.12;45.23
61618;BME280;47518;51.776;9.370;2023-03-01T16:52:30;101191.38;;;5.06;44.84
61618;BME280;47518;51.776;9.370;2023-03-01T16:54:55;101182.28;;;4.95;45.83
61618;BME280;47518;51.776;9.370;2023-03-01T16:57:20;101188.16;;;4.89;45.02
61618;BME280;47518;51.776;9.370;2023-03-01T16:59:46;101197.47;;;4.96;45.85
61618;BME280;47518;51.776;9.370;2023-03-01T17:02:13;101191.00;;;4.99;46.19
61618;BME280;47518;51.776;9.370;2023-03-01T17:04:44;101205.28;;;4.77;46.03
61618;BME280;47518;51.776;9.370;2023-03-01T17:07:10;101208.22;;;4.85;46.46
61618;BME280;47518;51.776;9.370;2023-03-01T17:09:36;101208.66;;;4.68;46.58
61618;BME280;47518;51.776;9.370;2023-03-01T17:12:03;101202.88;;;4.61;46.18
61618;BME280;47518;51.776;9.370;2023-03-01T17:14:29;101199.69;;;4.56;46.69
61618;BME280;47518;51.776;9.370;2023-03-01T17:16:54;101198.59;;;4.59;46.67
61618;BME280;47518;51.776;9.370;2023-03-01T17:19:20;101208.34;;;4.49;46.41
61618;BME280;47518;51.776;9.370;2023-03-01T17:21:45;101214.81;;;4.46;46.80
61618;BME280;47518;51.776;9.370;2023-03-01T17:24:11;101224.16;;;4.53;46.84
61618;BME280;47518;51.776;9.370;2023-03-01T17:26:37;101217.06;;;4.52;47.52
61618;BME280;47518;51.776;9.370;2023-03-01T17:29:03;101214.75;;;4.35;47.63
61618;BME280;47518;51.776;9.370;2023-03-01T17:31:29;101220.50;;;4.30;47.96
61618;BME280;47518;51.776;9.370;2023-03-01T17:33:55;101220.19;;;4.22;49.22
61618;BME280;47518;51.776;9.370;2023-03-01T17:36:21;101220.81;;;4.26;49.71
61618;BME280;47518;51.776;9.370;2023-03-01T17:38:47;101219.97;;;4.25;50.39
61618;BME280;47518;51.776;9.370;2023-03-01T17:41:13;101220.72;;;4.27;50.85
61618;BME280;47518;51.776;9.370;2023-03-01T17:43:41;101221.56;;;4.28;51.63
61618;BME280;47518;51.776;9.370;2023-03-01T17:46:07;101215.78;;;4.21;52.37
61618;BME280;47518;51.776;9.370;2023-03-01T17:48:32;101219.50;;;4.07;52.56
61618;BME280;47518;51.776;9.370;2023-03-01T17:50:58;101226.19;;;4.02;52.22
61618;BME280;47518;51.776;9.370;2023-03-01T17:53:23;101231.84;;;3.86;52.24
61618;BME280;47518;51.776;9.370;2023-03-01T17:55:58;101236.03;;;3.77;52.62
61618;BME280;47518;51.776;9.370;2023-03-01T17:58:24;101226.91;;;3.67;52.83
61618;BME280;47518;51.776;9.370;2023-03-01T18:00:49;101233.59;;;3.62;52.45
61618;BME280;47518;51.776;9.370;2023-03-01T18:03:15;101236.50;;;3.46;52.20
61618;BME280;47518;51.776;9.370;2023-03-01T18:05:41;101230.84;;;3.38;52.05
61618;BME280;47518;51.776;9.370;2023-03-01T18:08:06;101244.16;;;3.39;53.22
61618;BME280;47518;51.776;9.370;2023-03-01T18:10:32;101236.72;;;3.30;53.39
61618;BME280;47518;51.776;9.370;2023-03-01T18:13:00;101240.63;;;3.26;53.74
61618;BME280;47518;51.776;9.370;2023-03-01T18:15:26;101246.28;;;3.21;54.13
61618;BME280;47518;51.776;9.370;2023-03-01T18:17:53;101244.91;;;3.16;54.72
61618;BME280;47518;51.776;9.370;2023-03-01T18:20:18;101240.91;;;2.96;55.44
61618;BME280;47518;51.776;9.370;2023-03-01T18:22:44;101234.00;;;2.79;54.98
61618;BME280;47518;51.776;9.370;2023-03-01T18:25:10;101241.25;;;2.64;55.16
61618;BME280;47518;51.776;9.370;2023-03-01T18:27:35;101236.13;;;2.74;56.38
61618;BME280;47518;51.776;9.370;2023-03-01T18:30:03;101239.56;;;2.76;57.51
61618;BME280;47518;51.776;9.370;2023-03-01T18:32:28;101229.25;;;2.70;57.44
61618;BME280;47518;51.776;9.370;2023-03-01T18:34:54;101235.25;;;2.61;57.43
61618;BME280;47518;51.776;9.370;2023-03-01T18:37:19;101235.25;;;2.61;56.84
61618;BME280;47518;51.776;9.370;2023-03-01T18:39:45;101220.84;;;2.62;57.06
61618;BME280;47518;51.776;9.370;2023-03-01T18:42:10;101228.38;;;2.57;56.79
61618;BME280;47518;51.776;9.370;2023-03-01T18:44:36;101216.34;;;2.62;57.19
61618;BME280;47518;51.776;9.370;2023-03-01T18:47:02;101225.88;;;2.54;57.19
61618;BME280;47518;51.776;9.370;2023-03-01T18:49:28;101219.09;;;2.48;57.20
61618;BME280;47518;51.776;9.370;2023-03-01T18:51:54;101218.59;;;2.29;57.02
61618;BME280;47518;51.776;9.370;2023-03-01T18:54:19;101210.84;;;1.97;57.19
61618;BME280;47518;51.776;9.370;2023-03-01T18:56:45;101217.94;;;1.84;57.41
61618;BME280;47518;51.776;9.370;2023-03-01T18:59:11;101217.28;;;1.81;57.61
61618;BME280;47518;51.776;9.370;2023-03-01T19:01:36;101216.75;;;1.75;57.89
61618;BME280;47518;51.776;9.370;2023-03-01T19:04:05;101221.91;;;1.79;58.52